Time;durP1;ratioP1;P1;durP2;ratioP2;P2;SDS_P1;SDS_P2;PMS_P1;PMS_P2;Temp;Humidity;BMP_temperature;BMP_pressure;BME280_temperature;BME280_humidity;BME280_pressure;Samples;Min_cycle;Max_cycle;Signal;HPM_P1;HPM_P2
2022/01/18 00:01:10;;;;;;;1.15;1.15;;;10.00;82.10;;;;;;5062667;28;20198;-72
2022/01/18 00:03:39;;;;;;;1.42;1.42;;;9.90;82.30;;;;;;5061048;28;20209;-70
2022/01/18 00:06:06;;;;;;;1.58;1.48;;;9.80;82.40;;;;;;5055451;28;20203;-76
2022/01/18 00:08:33;;;;;;;1.45;1.45;;;9.80;82.60;;;;;;5055961;28;20285;-72
2022/01/18 00:11:00;;;;;;;1.52;1.52;;;9.80;82.70;;;;;;5056767;28;20270;-73
2022/01/18 00:13:40;;;;;;;1.30;1.30;;;9.90;82.50;;;;;;5056027;28;20225;-72
2022/01/18 00:16:27;;;;;;;1.50;1.20;;;9.80;82.50;;;;;;5059856;28;20198;-70
2022/01/18 00:18:59;;;;;;;1.50;1.50;;;9.80;82.80;;;;;;5039448;28;20231;-71
2022/01/18 00:21:34;;;;;;;1.30;1.30;;;9.80;82.60;;;;;;5044987;28;20206;-71
2022/01/18 00:24:01;;;;;;;1.27;1.27;;;9.80;82.50;;;;;;5058514;28;20705;-76
2022/01/18 00:26:31;;;;;;;1.45;1.45;;;9.80;82.80;;;;;;5059593;28;20194;-72
2022/01/18 00:29:04;;;;;;;1.33;1.33;;;9.80;82.70;;;;;;5059035;28;20715;-69
2022/01/18 00:31:46;;;;;;;1.73;1.65;;;9.80;82.80;;;;;;5059563;28;20195;-70
2022/01/18 00:34:21;;;;;;;1.50;1.50;;;9.80;82.80;;;;;;5058810;28;20214;-70
2022/01/18 00:37:22;;;;;;;1.42;1.42;;;9.80;82.80;;;;;;5060141;28;20247;-71
2022/01/18 00:39:48;;;;;;;1.30;1.30;;;9.80;82.60;;;;;;5056052;28;20221;-73
2022/01/18 00:42:15;;;;;;;1.38;1.38;;;9.80;82.60;;;;;;5053810;28;20195;-72
2022/01/18 00:44:42;;;;;;;1.52;1.52;;;9.80;82.90;;;;;;5057536;28;20214;-72
2022/01/18 00:47:09;;;;;;;1.52;1.52;;;9.70;82.80;;;;;;5056465;28;20251;-72
2022/01/18 00:49:42;;;;;;;1.50;1.50;;;9.70;82.80;;;;;;5056055;28;20279;-76
2022/01/18 00:52:10;;;;;;;1.38;1.38;;;9.60;83.40;;;;;;5056924;28;20198;-70
2022/01/18 00:54:40;;;;;;;1.30;1.30;;;9.50;83.40;;;;;;5057614;28;20638;-74
2022/01/18 00:57:08;;;;;;;1.60;1.60;;;9.40;83.40;;;;;;5058148;28;20203;-70
2022/01/18 00:59:36;;;;;;;1.42;1.42;;;9.30;84.00;;;;;;5055165;28;20246;-72
2022/01/18 01:02:03;;;;;;;1.30;1.30;;;9.20;84.50;;;;;;5059253;28;20194;-75
2022/01/18 01:04:37;;;;;;;1.20;1.20;;;9.10;85.20;;;;;;5054982;28;20226;-73
2022/01/18 01:07:06;;;;;;;1.60;1.60;;;9.10;85.20;;;;;;5057859;28;20699;-72
2022/01/18 01:09:34;;;;;;;1.33;1.33;;;9.00;85.20;;;;;;5057404;28;20226;-75
2022/01/18 01:12:01;;;;;;;1.10;1.10;;;9.00;85.40;;;;;;5059993;28;20251;-71
2022/01/18 01:14:30;;;;;;;1.20;1.20;;;8.90;85.70;;;;;;5060217;28;20242;-70
2022/01/18 01:17:06;;;;;;;1.58;1.58;;;8.90;85.80;;;;;;5063973;28;20272;-71
2022/01/18 01:36:13;;;;;;;1.38;1.38;;;8.60;86.40;;;;;;5063046;28;20710;-71
2022/01/18 01:44:25;;;;;;;1.30;1.30;;;8.30;88.30;;;;;;4987610;28;20196;-70
2022/01/18 01:46:53;;;;;;;1.40;1.40;;;8.20;88.30;;;;;;5045724;28;20297;-73
2022/01/18 01:49:23;;;;;;;1.50;1.50;;;8.10;88.50;;;;;;5062031;28;20229;-70
2022/01/18 01:51:50;;;;;;;1.65;1.60;;;8.00;88.60;;;;;;5061859;28;20394;-70
2022/01/18 01:54:18;;;;;;;1.20;1.20;;;8.00;89.40;;;;;;5064609;28;20227;-70
2022/01/18 01:56:45;;;;;;;1.25;1.25;;;7.90;88.80;;;;;;5060489;28;20195;-70
2022/01/18 01:59:13;;;;;;;1.30;1.30;;;7.90;89.10;;;;;;5067112;28;20225;-70
2022/01/18 02:01:42;;;;;;;1.25;1.25;;;7.80;89.40;;;;;;5063092;28;20222;-70
2022/01/18 02:04:09;;;;;;;1.10;1.10;;;7.80;89.60;;;;;;5066590;28;20195;-71
2022/01/18 02:06:36;;;;;;;1.40;1.40;;;7.80;89.40;;;;;;5060671;28;20233;-70
2022/01/18 02:09:04;;;;;;;1.60;1.50;;;7.80;89.10;;;;;;5092449;22;20225;-73
2022/01/18 02:11:33;;;;;;;1.40;1.30;;;7.80;89.60;;;;;;5065804;28;20218;-72
2022/01/18 02:14:00;;;;;;;1.13;1.13;;;7.70;89.40;;;;;;5066946;28;20218;-73
2022/01/18 02:22:03;;;;;;;1.60;1.50;;;7.70;90.00;;;;;;5057501;28;20222;-75
2022/01/18 02:24:30;;;;;;;1.52;1.52;;;7.90;89.40;;;;;;5052362;28;20385;-75
2022/01/18 02:26:57;;;;;;;1.50;1.50;;;7.90;89.30;;;;;;5052677;28;20760;-76
2022/01/18 02:29:24;;;;;;;1.17;1.17;;;8.00;89.10;;;;;;5074715;28;20207;-76
2022/01/18 02:31:52;;;;;;;1.35;1.35;;;8.10;88.80;;;;;;5072742;28;20229;-73
2022/01/18 02:34:20;;;;;;;1.67;1.50;;;8.20;88.20;;;;;;5055216;28;20307;-75
2022/01/18 02:36:48;;;;;;;1.20;1.20;;;8.20;88.20;;;;;;5052580;28;20891;-75
2022/01/18 02:39:21;;;;;;;1.10;1.10;;;8.20;88.70;;;;;;5054012;28;20219;-74
2022/01/18 02:41:54;;;;;;;0.98;0.98;;;8.10;88.50;;;;;;5052444;28;20316;-75
2022/01/18 02:44:21;;;;;;;1.50;1.40;;;8.20;88.70;;;;;;5048532;28;20230;-75
2022/01/18 02:46:48;;;;;;;1.10;1.10;;;8.10;88.60;;;;;;5052053;28;20226;-73
2022/01/18 02:49:15;;;;;;;1.20;1.20;;;8.10;88.90;;;;;;5051641;28;20632;-75
2022/01/18 02:51:43;;;;;;;1.00;1.00;;;8.00;88.80;;;;;;5049617;28;20296;-75
2022/01/18 02:54:12;;;;;;;1.30;1.30;;;8.00;89.00;;;;;;5049742;28;20284;-73
2022/01/18 02:56:44;;;;;;;1.20;1.20;;;7.90;89.10;;;;;;5050184;28;20220;-75
2022/01/18 02:59:18;;;;;;;1.33;1.33;;;8.00;89.00;;;;;;5049583;28;20222;-73
2022/01/18 03:04:32;;;;;;;1.25;1.25;;;8.20;88.60;;;;;;5053032;28;20241;-73
2022/01/18 03:06:59;;;;;;;1.02;1.02;;;8.10;89.20;;;;;;5050346;28;20218;-75
2022/01/18 03:09:26;;;;;;;1.42;1.42;;;7.90;89.70;;;;;;5049244;28;20219;-73
2022/01/18 03:11:55;;;;;;;1.48;1.48;;;7.70;90.00;;;;;;5054777;28;20221;-75
2022/01/18 03:14:22;;;;;;;1.10;1.10;;;7.40;90.50;;;;;;5066091;28;20214;-75
2022/01/18 03:16:49;;;;;;;1.23;1.23;;;7.20;90.70;;;;;;5053568;28;20218;-74
2022/01/18 03:19:17;;;;;;;1.20;1.20;;;7.00;91.00;;;;;;5046651;28;20264;-75
2022/01/18 03:21:44;;;;;;;1.27;1.27;;;6.90;91.30;;;;;;5051177;28;20666;-75
2022/01/18 03:24:31;;;;;;;1.42;1.42;;;6.90;91.40;;;;;;5051669;28;20195;-77
2022/01/18 03:29:44;;;;;;;1.42;1.42;;;6.70;91.40;;;;;;5047608;28;20715;-75
2022/01/18 03:32:12;;;;;;;1.40;1.40;;;6.60;91.60;;;;;;5049948;28;20215;-75
2022/01/18 03:34:39;;;;;;;1.55;1.55;;;6.50;92.30;;;;;;5048241;28;20273;-75
2022/01/18 03:37:06;;;;;;;1.40;1.40;;;6.40;92.40;;;;;;5050428;28;20218;-75
2022/01/18 03:39:33;;;;;;;1.27;1.27;;;6.40;92.40;;;;;;5052117;28;20302;-75
2022/01/18 03:42:32;;;;;;;1.50;1.50;;;6.40;92.40;;;;;;5051786;28;20233;-75
2022/01/18 03:44:57;;;;;;;1.65;1.65;;;6.50;92.10;;;;;;5047594;28;20187;-75
2022/01/18 03:47:24;;;;;;;1.50;1.50;;;6.50;92.00;;;;;;5051610;28;20665;-75
2022/01/18 03:49:51;;;;;;;1.20;1.20;;;6.50;92.10;;;;;;5047059;28;20230;-75
2022/01/18 03:52:18;;;;;;;1.55;1.50;;;6.40;92.20;;;;;;5050986;28;20739;-75
2022/01/18 03:54:47;;;;;;;1.50;1.50;;;6.40;92.30;;;;;;5048840;28;20222;-75
2022/01/18 03:57:16;;;;;;;1.65;1.30;;;6.50;92.10;;;;;;5049435;28;20233;-75
2022/01/18 03:59:43;;;;;;;1.38;1.38;;;6.60;92.10;;;;;;5047978;28;20306;-76
2022/01/18 04:02:11;;;;;;;1.42;1.33;;;6.60;91.90;;;;;;5046652;28;20219;-75
2022/01/18 04:04:39;;;;;;;1.55;1.45;;;6.60;92.00;;;;;;5047310;28;20211;-75
2022/01/18 04:07:06;;;;;;;1.13;1.13;;;6.60;91.90;;;;;;5053865;28;20222;-75
2022/01/18 04:09:34;;;;;;;1.80;1.80;;;6.60;91.90;;;;;;5047142;28;20228;-75
2022/01/18 04:12:02;;;;;;;1.48;1.48;;;6.60;92.20;;;;;;5051465;28;20226;-76
2022/01/18 04:14:30;;;;;;;1.30;1.30;;;6.50;92.30;;;;;;5049691;28;20682;-75
2022/01/18 04:17:04;;;;;;;1.60;1.60;;;6.40;92.50;;;;;;5051790;28;20222;-75
2022/01/18 04:27:52;;;;;;;1.50;1.50;;;6.20;93.00;;;;;;5050190;28;20206;-75
2022/01/18 04:30:22;;;;;;;2.03;1.92;;;6.20;92.90;;;;;;5042660;28;20749;-75
2022/01/18 04:32:49;;;;;;;1.83;1.83;;;6.20;92.90;;;;;;5047181;28;20206;-75
2022/01/18 04:35:16;;;;;;;1.60;1.60;;;6.30;92.80;;;;;;5051270;28;20219;-75
2022/01/18 04:37:43;;;;;;;1.80;1.80;;;6.30;92.80;;;;;;5047610;28;20657;-75
2022/01/18 04:40:15;;;;;;;1.38;1.38;;;6.40;92.70;;;;;;5046557;28;20219;-75
2022/01/18 04:43:01;;;;;;;1.45;1.45;;;6.40;92.80;;;;;;5046865;28;20195;-72
2022/01/18 04:48:31;;;;;;;1.88;1.77;;;6.10;93.10;;;;;;5049085;28;20581;-74
2022/01/18 04:51:00;;;;;;;1.60;1.60;;;6.00;93.50;;;;;;5049211;28;20360;-75
2022/01/18 04:53:30;;;;;;;1.33;1.33;;;6.00;93.70;;;;;;5054354;28;20244;-75
2022/01/18 04:56:00;;;;;;;1.75;1.75;;;6.00;93.60;;;;;;5049509;28;20250;-75
2022/01/18 04:58:28;;;;;;;1.40;1.40;;;5.90;93.70;;;;;;5051012;28;20230;-75
2022/01/18 05:00:59;;;;;;;1.60;1.60;;;5.90;93.90;;;;;;5050694;28;20336;-75
2022/01/18 05:03:27;;;;;;;1.60;1.60;;;5.90;93.90;;;;;;5053467;28;20281;-75
2022/01/18 05:05:56;;;;;;;1.42;1.42;;;5.90;93.80;;;;;;5054084;28;20215;-74
2022/01/18 05:08:24;;;;;;;1.65;1.60;;;5.80;94.00;;;;;;5048944;28;20566;-75
2022/01/18 05:10:55;;;;;;;1.55;1.55;;;5.80;94.00;;;;;;5049092;28;20301;-75
2022/01/18 05:16:30;;;;;;;1.98;1.88;;;5.90;93.70;;;;;;5039148;28;20226;-75
2022/01/18 05:19:08;;;;;;;1.77;1.77;;;5.90;94.00;;;;;;5066230;28;20214;-75
2022/01/18 05:22:56;;;;;;;1.52;1.50;;;5.90;94.10;;;;;;5053178;28;20700;-75
2022/01/18 05:24:24;;;;;;;1.83;1.83;;;5.90;94.10;;;;;;5052165;28;20405;-75
2022/01/18 05:26:52;;;;;;;1.77;1.60;;;5.90;94.00;;;;;;5052129;28;20222;-75
2022/01/18 05:29:19;;;;;;;1.42;1.42;;;5.80;93.90;;;;;;5050576;28;20233;-75
2022/01/18 05:31:48;;;;;;;1.90;1.80;;;5.80;94.20;;;;;;5048869;28;20226;-74
2022/01/18 05:34:15;;;;;;;1.70;1.70;;;5.80;94.30;;;;;;5047404;28;20643;-75
2022/01/18 05:36:42;;;;;;;1.98;1.95;;;5.70;94.40;;;;;;5033477;28;20694;-75
2022/01/18 05:39:10;;;;;;;1.60;1.60;;;5.70;94.60;;;;;;5029719;28;20222;-75
2022/01/18 05:41:37;;;;;;;1.45;1.45;;;5.70;94.70;;;;;;5029533;28;20224;-75
2022/01/18 05:44:05;;;;;;;1.70;1.70;;;5.60;94.60;;;;;;5029137;28;20195;-75
2022/01/18 05:46:32;;;;;;;2.42;2.33;;;5.60;94.60;;;;;;5030121;28;20231;-74
2022/01/18 05:49:02;;;;;;;2.15;2.05;;;5.70;94.80;;;;;;5030932;28;20265;-75
2022/01/18 05:51:30;;;;;;;2.42;2.33;;;5.70;94.80;;;;;;5042641;28;20221;-75
2022/01/18 05:53:57;;;;;;;2.35;2.25;;;5.70;94.70;;;;;;5047333;28;20206;-72
2022/01/18 05:56:24;;;;;;;2.30;2.20;;;5.70;94.70;;;;;;5065662;28;20215;-74
2022/01/18 05:58:51;;;;;;;2.33;2.22;;;5.70;94.80;;;;;;5046533;28;20226;-74
2022/01/18 06:01:25;;;;;;;2.13;2.03;;;5.70;94.90;;;;;;5051491;28;20215;-75
2022/01/18 06:04:07;;;;;;;2.20;2.10;;;5.70;94.80;;;;;;5050838;28;20202;-75
2022/01/18 06:06:51;;;;;;;2.40;2.30;;;5.70;94.70;;;;;;5043203;28;20219;-75
2022/01/18 06:09:19;;;;;;;2.13;2.03;;;5.70;94.80;;;;;;5047790;28;20600;-75
2022/01/18 06:11:47;;;;;;;2.20;2.10;;;5.70;95.10;;;;;;5055070;28;20306;-76
2022/01/18 06:14:14;;;;;;;2.58;2.38;;;5.70;95.00;;;;;;5047813;28;20289;-75
2022/01/18 06:16:41;;;;;;;4.55;2.38;;;5.70;94.90;;;;;;5046322;28;20353;-75
2022/01/18 06:19:08;;;;;;;2.30;2.20;;;5.60;95.10;;;;;;5048760;28;20219;-75
2022/01/18 06:21:36;;;;;;;2.20;2.10;;;5.60;95.10;;;;;;5050873;28;20230;-76
2022/01/18 06:24:04;;;;;;;2.53;2.42;;;5.60;95.20;;;;;;5055853;28;20206;-75
2022/01/18 06:26:31;;;;;;;1.55;1.55;;;5.50;95.20;;;;;;5053214;28;20225;-73
2022/01/18 06:29:00;;;;;;;2.00;1.90;;;5.50;95.50;;;;;;5050125;28;20280;-74
2022/01/18 06:31:27;;;;;;;2.35;2.17;;;5.60;95.70;;;;;;5050857;28;20760;-75
2022/01/18 06:33:54;;;;;;;2.30;2.10;;;5.50;95.60;;;;;;5052756;28;20201;-75
2022/01/18 06:36:21;;;;;;;4.07;2.60;;;5.50;95.40;;;;;;5056893;28;20596;-75
2022/01/18 06:38:49;;;;;;;2.60;2.50;;;5.40;95.50;;;;;;5054516;28;20250;-75
2022/01/18 06:41:16;;;;;;;2.30;2.20;;;5.40;95.60;;;;;;5054415;28;20215;-75
2022/01/18 06:43:43;;;;;;;1.70;1.70;;;5.40;95.60;;;;;;5056356;28;20554;-74
2022/01/18 06:46:10;;;;;;;2.15;2.05;;;5.50;95.70;;;;;;5053616;28;20237;-74
2022/01/18 06:48:37;;;;;;;2.03;1.92;;;5.50;95.70;;;;;;5060126;28;20206;-75
2022/01/18 06:51:04;;;;;;;2.08;1.98;;;5.60;95.70;;;;;;5050239;28;20627;-75
2022/01/18 06:53:35;;;;;;;2.20;2.10;;;5.50;95.50;;;;;;5033669;28;20260;-73
2022/01/18 06:56:04;;;;;;;2.40;2.30;;;5.60;95.80;;;;;;5033667;28;20277;-75
2022/01/18 06:58:31;;;;;;;2.10;2.00;;;5.60;95.80;;;;;;5032683;28;20730;-74
2022/01/18 07:00:58;;;;;;;1.90;1.80;;;5.60;95.80;;;;;;5036275;28;20227;-75
2022/01/18 07:03:25;;;;;;;2.10;2.00;;;5.60;96.00;;;;;;5030241;28;20199;-75
2022/01/18 07:05:52;;;;;;;2.42;2.33;;;5.60;96.00;;;;;;5035613;28;20227;-75
2022/01/18 07:08:20;;;;;;;1.92;1.83;;;5.50;95.80;;;;;;5052458;28;20206;-75
2022/01/18 07:10:47;;;;;;;2.35;2.25;;;5.50;95.90;;;;;;5049995;28;20203;-75
2022/01/18 07:13:15;;;;;;;1.90;1.80;;;5.50;96.10;;;;;;5054191;28;20198;-75
2022/01/18 07:15:42;;;;;;;2.28;1.90;;;5.50;96.20;;;;;;5047619;28;20218;-75
2022/01/18 07:18:10;;;;;;;2.03;1.92;;;5.50;96.10;;;;;;5048476;28;20262;-75
2022/01/18 07:20:38;;;;;;;2.30;2.20;;;5.50;96.10;;;;;;5052494;28;20466;-76
2022/01/18 07:23:07;;;;;;;1.80;1.80;;;5.40;96.00;;;;;;5048800;28;20237;-75
2022/01/18 07:25:36;;;;;;;2.10;2.00;;;5.40;95.70;;;;;;5047777;28;20246;-75
2022/01/18 07:28:03;;;;;;;2.10;2.00;;;5.40;95.60;;;;;;5050261;28;20206;-76
2022/01/18 07:30:31;;;;;;;2.10;2.00;;;5.40;95.90;;;;;;5050210;28;20214;-76
2022/01/18 07:32:58;;;;;;;2.10;2.00;;;5.40;96.10;;;;;;5050474;28;20690;-75
2022/01/18 07:35:27;;;;;;;2.03;2.00;;;5.50;96.20;;;;;;5054545;28;20214;-76
2022/01/18 07:37:56;;;;;;;2.20;2.10;;;5.50;96.10;;;;;;5051660;28;20241;-76
2022/01/18 07:40:23;;;;;;;1.58;1.58;;;5.50;96.20;;;;;;5048665;28;20214;-76
2022/01/18 07:42:50;;;;;;;2.33;2.13;;;5.50;96.50;;;;;;5053737;28;20739;-76
2022/01/18 07:45:17;;;;;;;2.40;2.30;;;5.60;96.40;;;;;;5045990;28;20188;-76
2022/01/18 07:47:46;;;;;;;2.58;2.45;;;5.60;96.10;;;;;;5051806;28;20293;-75
2022/01/18 07:50:13;;;;;;;4.72;4.43;;;5.60;96.00;;;;;;5048449;28;20713;-75
2022/01/18 07:52:40;;;;;;;4.82;4.43;;;5.60;96.30;;;;;;5047934;28;20218;-75
2022/01/18 07:55:07;;;;;;;4.30;3.95;;;5.60;96.30;;;;;;5050400;28;20226;-74
2022/01/18 07:57:37;;;;;;;4.85;3.78;;;5.70;95.70;;;;;;5052895;28;20222;-75
2022/01/18 08:00:05;;;;;;;3.88;3.58;;;5.70;95.70;;;;;;5061771;28;20198;-77
2022/01/18 08:02:33;;;;;;;3.50;3.30;;;5.70;95.80;;;;;;5069169;28;20257;-74
2022/01/18 08:05:02;;;;;;;3.28;3.00;;;5.70;95.90;;;;;;5055703;28;20219;-75
2022/01/18 08:07:29;;;;;;;3.00;2.80;;;5.80;97.40;;;;;;5048541;28;20225;-75
2022/01/18 08:09:56;;;;;;;2.88;2.60;;;5.90;96.60;;;;;;5086553;22;20289;-69
2022/01/18 08:12:24;;;;;;;2.30;2.10;;;5.80;96.20;;;;;;5083382;28;20591;-68
2022/01/18 08:14:54;;;;;;;2.28;2.17;;;5.80;96.10;;;;;;5078399;28;20202;-69
2022/01/18 08:17:22;;;;;;;2.20;2.10;;;5.90;95.40;;;;;;5090514;28;20221;-69
2022/01/18 08:19:49;;;;;;;2.28;2.17;;;6.00;95.20;;;;;;5074742;28;20304;-68
2022/01/18 08:22:18;;;;;;;1.98;1.88;;;6.10;95.20;;;;;;5064463;28;20295;-69
2022/01/18 08:24:45;;;;;;;2.25;2.15;;;7.00;95.20;;;;;;5061218;28;20279;-68
2022/01/18 08:27:12;;;;;;;3.60;2.50;;;8.20;94.30;;;;;;5071154;28;20224;-71
2022/01/18 08:29:39;;;;;;;4.25;3.85;;;9.40;93.50;;;;;;5072718;28;20234;-70
2022/01/18 08:32:07;;;;;;;5.80;3.13;;;10.30;92.40;;;;;;5070342;28;20213;-70
2022/01/18 08:34:34;;;;;;;2.97;2.78;;;11.10;91.50;;;;;;5069787;28;20247;-70
2022/01/18 08:37:01;;;;;;;3.35;3.05;;;11.80;90.80;;;;;;5068211;28;20720;-74
2022/01/18 08:39:30;;;;;;;2.50;2.35;;;12.30;89.90;;;;;;5065254;28;20198;-71
2022/01/18 08:41:57;;;;;;;2.60;2.40;;;13.00;88.50;;;;;;5060499;28;20217;-72
2022/01/18 08:44:24;;;;;;;2.53;2.33;;;13.50;87.10;;;;;;5073816;28;20268;-74
2022/01/18 08:46:52;;;;;;;2.15;2.03;;;13.60;86.00;;;;;;5064337;28;20222;-73
2022/01/18 08:49:19;;;;;;;3.05;2.30;;;13.60;86.60;;;;;;5065976;28;20201;-72
2022/01/18 08:51:46;;;;;;;2.60;2.40;;;13.40;86.10;;;;;;5074480;28;20229;-71
2022/01/18 08:54:13;;;;;;;2.28;2.17;;;13.00;87.00;;;;;;5074995;28;20195;-76
2022/01/18 08:56:42;;;;;;;2.50;2.30;;;13.10;88.90;;;;;;5071506;28;20229;-74
2022/01/18 08:59:09;;;;;;;2.00;1.90;;;13.30;87.50;;;;;;5066879;28;20200;-71
2022/01/18 09:01:36;;;;;;;1.90;1.80;;;13.80;86.60;;;;;;5062355;28;20512;-72
2022/01/18 09:04:03;;;;;;;1.80;1.70;;;14.00;85.80;;;;;;5072605;28;20202;-70
2022/01/18 09:06:31;;;;;;;2.22;2.10;;;14.20;84.70;;;;;;5068358;28;20287;-70
2022/01/18 09:08:58;;;;;;;2.47;1.50;;;13.90;83.80;;;;;;5066929;28;20256;-70
2022/01/18 09:11:26;;;;;;;2.10;2.00;;;13.80;84.00;;;;;;5071091;28;20274;-71
2022/01/18 09:13:55;;;;;;;1.83;1.73;;;14.30;83.10;;;;;;5070041;28;20668;-71
2022/01/18 09:16:22;;;;;;;1.52;1.42;;;14.30;81.50;;;;;;5067055;28;20307;-70
2022/01/18 09:18:50;;;;;;;2.28;1.83;;;14.50;80.80;;;;;;5070488;28;20258;-71
2022/01/18 09:21:17;;;;;;;1.85;1.58;;;14.60;80.60;;;;;;5064855;28;20662;-70
2022/01/18 09:23:44;;;;;;;1.80;1.70;;;14.60;81.00;;;;;;5070694;28;20198;-70
2022/01/18 09:26:13;;;;;;;1.50;1.40;;;15.00;80.30;;;;;;5066597;28;20195;-71
2022/01/18 09:28:40;;;;;;;1.83;1.73;;;15.90;78.20;;;;;;5071806;28;20395;-70
2022/01/18 09:31:10;;;;;;;1.73;1.63;;;17.20;76.10;;;;;;5066919;28;20293;-69
2022/01/18 09:33:37;;;;;;;1.60;1.50;;;18.80;70.40;;;;;;5071843;28;20206;-70
2022/01/18 09:36:04;;;;;;;2.97;1.55;;;20.70;66.70;;;;;;5067382;28;20210;-70
2022/01/18 09:38:31;;;;;;;1.35;1.30;;;22.40;62.40;;;;;;5072930;28;20194;-69
2022/01/18 09:41:00;;;;;;;1.27;1.25;;;24.00;58.40;;;;;;5063452;28;20595;-70
2022/01/18 09:43:28;;;;;;;1.70;1.60;;;25.30;55.20;;;;;;5068776;28;20194;-70
2022/01/18 09:45:57;;;;;;;1.45;1.40;;;25.80;53.90;;;;;;5066471;28;20458;-70
2022/01/18 09:48:25;;;;;;;1.15;1.10;;;26.20;52.40;;;;;;5075630;28;20198;-70
2022/01/18 09:50:53;;;;;;;2.65;1.50;;;26.10;50.50;;;;;;5072862;28;20220;-70
2022/01/18 09:53:20;;;;;;;4.60;1.73;;;25.80;51.60;;;;;;5075680;28;20643;-71
2022/01/18 09:55:49;;;;;;;1.80;1.70;;;25.10;52.00;;;;;;5071795;28;20218;-70
2022/01/18 09:58:16;;;;;;;2.72;2.17;;;24.50;53.20;;;;;;5076106;28;20259;-71
2022/01/18 10:00:44;;;;;;;2.88;2.38;;;23.20;54.70;;;;;;5073294;28;20218;-70
2022/01/18 10:03:29;;;;;;;2.45;2.22;;;21.80;56.50;;;;;;5072482;28;20229;-71
2022/01/18 10:05:57;;;;;;;2.28;2.00;;;19.80;59.00;;;;;;5079555;28;20848;-71
2022/01/18 10:08:24;;;;;;;3.30;1.85;;;18.50;62.40;;;;;;5072234;28;20221;-71
2022/01/18 10:10:54;;;;;;;2.10;2.00;;;17.80;64.20;;;;;;5079756;28;20743;-70
2022/01/18 10:13:22;;;;;;;2.10;1.77;;;17.10;65.70;;;;;;5072901;28;20213;-71
2022/01/18 10:16:05;;;;;;;1.90;1.80;;;16.70;67.60;;;;;;5069264;28;20218;-70
2022/01/18 10:18:46;;;;;;;1.67;1.58;;;16.60;67.90;;;;;;5071089;28;20222;-70
2022/01/18 10:21:16;;;;;;;1.48;1.38;;;16.20;67.80;;;;;;5074709;28;20347;-70
2022/01/18 10:23:49;;;;;;;1.50;1.40;;;16.20;69.50;;;;;;5076158;28;20229;-71
2022/01/18 10:26:21;;;;;;;1.52;1.42;;;16.50;69.60;;;;;;5064595;28;20194;-70
2022/01/18 10:28:49;;;;;;;1.52;1.42;;;16.90;69.10;;;;;;5073279;28;20213;-71
2022/01/18 10:31:28;;;;;;;1.73;1.40;;;17.30;68.40;;;;;;5069594;28;20218;-70
2022/01/18 10:34:25;;;;;;;2.40;1.80;;;17.10;68.80;;;;;;5066739;28;20282;-70
2022/01/18 10:36:56;;;;;;;2.08;1.90;;;16.80;69.70;;;;;;5068538;28;20657;-70
2022/01/18 10:39:24;;;;;;;1.85;1.75;;;16.50;70.80;;;;;;5068357;28;20194;-70
2022/01/18 10:41:52;;;;;;;1.42;1.33;;;16.50;71.00;;;;;;5072569;28;20254;-70
2022/01/18 10:44:20;;;;;;;1.48;1.38;;;16.30;71.20;;;;;;5063835;28;20209;-70
2022/01/18 10:46:49;;;;;;;2.17;1.98;;;16.50;70.80;;;;;;5060130;28;20226;-70
2022/01/18 10:49:33;;;;;;;2.00;1.80;;;16.80;71.00;;;;;;5067559;28;20624;-71
2022/01/18 10:52:04;;;;;;;2.75;1.50;;;17.20;70.10;;;;;;5062651;28;20228;-70
2022/01/18 10:54:46;;;;;;;4.03;1.95;;;17.30;71.10;;;;;;5062403;28;20198;-71
2022/01/18 10:57:17;;;;;;;2.50;2.30;;;17.50;70.00;;;;;;5071910;28;20309;-70
2022/01/18 10:59:44;;;;;;;2.42;2.08;;;17.50;70.10;;;;;;5066644;28;20210;-70
2022/01/18 11:02:14;;;;;;;3.35;1.90;;;17.70;69.50;;;;;;5067456;28;20416;-71
2022/01/18 11:04:45;;;;;;;3.08;1.80;;;17.30;70.10;;;;;;5069296;28;20716;-72
2022/01/18 11:07:13;;;;;;;3.25;2.22;;;17.20;70.20;;;;;;5069564;28;20222;-71
2022/01/18 11:09:41;;;;;;;3.70;2.00;;;17.20;70.30;;;;;;5068085;28;20217;-71
2022/01/18 11:12:10;;;;;;;3.30;1.92;;;17.00;70.40;;;;;;5073379;28;20216;-72
2022/01/18 11:14:39;;;;;;;4.50;2.00;;;16.90;70.10;;;;;;5067259;28;20194;-71
2022/01/18 11:17:08;;;;;;;1.80;1.60;;;16.70;70.40;;;;;;5070477;28;20225;-71
2022/01/18 11:19:38;;;;;;;2.25;1.63;;;16.80;71.40;;;;;;5063535;28;20247;-71
2022/01/18 11:22:10;;;;;;;1.75;1.60;;;17.00;71.00;;;;;;5064033;28;20217;-71
2022/01/18 11:24:39;;;;;;;1.70;1.60;;;17.10;71.20;;;;;;5057897;28;20198;-71
2022/01/18 11:27:11;;;;;;;2.55;1.70;;;17.10;71.40;;;;;;5058257;28;20215;-71
2022/01/18 11:29:39;;;;;;;1.63;1.50;;;17.00;70.00;;;;;;5069139;28;20601;-70
2022/01/18 11:32:07;;;;;;;2.00;1.90;;;17.00;70.30;;;;;;5054967;28;20245;-70
2022/01/18 11:34:55;;;;;;;1.77;1.50;;;17.20;70.20;;;;;;5064957;28;20191;-70
2022/01/18 11:37:31;;;;;;;1.52;1.42;;;17.40;69.80;;;;;;5061190;28;20225;-70
2022/01/18 11:40:04;;;;;;;1.55;1.45;;;17.50;69.50;;;;;;5061393;28;20467;-71
2022/01/18 11:42:49;;;;;;;1.30;1.20;;;17.40;68.70;;;;;;5064153;28;20222;-71
2022/01/18 11:45:31;;;;;;;1.55;1.42;;;17.50;68.10;;;;;;5066937;28;20198;-71
2022/01/18 11:48:04;;;;;;;3.03;1.50;;;17.20;68.10;;;;;;5062338;28;20638;-71
2022/01/18 11:50:33;;;;;;;1.67;1.58;;;17.00;68.70;;;;;;5061697;28;20222;-71
2022/01/18 11:53:25;;;;;;;1.48;1.38;;;17.10;68.70;;;;;;5069417;28;20217;-71
2022/01/18 11:55:54;;;;;;;1.30;1.20;;;16.90;67.60;;;;;;5064506;28;20641;-71
2022/01/18 11:58:22;;;;;;;1.48;1.38;;;17.10;68.80;;;;;;5060029;28;20564;-72
2022/01/18 12:00:52;;;;;;;1.73;1.63;;;16.70;68.10;;;;;;5060877;28;20311;-71
2022/01/18 12:03:22;;;;;;;2.45;1.50;;;16.30;69.30;;;;;;5070820;28;20643;-70
2022/01/18 12:05:50;;;;;;;1.60;1.50;;;16.10;71.10;;;;;;5066762;28;20202;-70
2022/01/18 12:08:36;;;;;;;1.77;1.65;;;16.00;69.50;;;;;;5073607;28;20211;-71
2022/01/18 12:11:05;;;;;;;2.65;1.40;;;16.00;69.80;;;;;;5065281;28;20225;-70
2022/01/18 12:13:47;;;;;;;1.60;1.50;;;16.10;69.20;;;;;;5057473;28;20711;-70
2022/01/18 12:16:28;;;;;;;2.17;1.70;;;16.30;69.30;;;;;;5057375;28;20221;-70
2022/01/18 12:19:02;;;;;;;2.60;1.77;;;16.10;72.50;;;;;;5068450;28;20723;-70
2022/01/18 12:21:31;;;;;;;1.92;1.80;;;16.20;71.60;;;;;;5064406;28;20747;-70
2022/01/18 12:24:14;;;;;;;4.43;1.50;;;16.30;71.00;;;;;;5060756;28;20635;-70
2022/01/18 12:26:44;;;;;;;2.35;1.60;;;16.40;69.30;;;;;;5067642;28;20241;-71
2022/01/18 12:29:35;;;;;;;3.08;1.42;;;16.40;71.70;;;;;;5073836;28;20667;-70
2022/01/18 12:32:20;;;;;;;1.58;1.48;;;16.70;72.10;;;;;;5061946;28;20313;-71
2022/01/18 12:34:51;;;;;;;1.92;1.30;;;16.60;69.80;;;;;;5060367;28;20279;-72
2022/01/18 12:37:48;;;;;;;2.38;1.30;;;16.60;71.90;;;;;;5062922;28;20218;-72
2022/01/18 12:40:34;;;;;;;2.63;1.40;;;16.50;69.90;;;;;;5067660;28;20219;-72
2022/01/18 12:45:53;;;;;;;1.13;1.10;;;16.50;69.50;;;;;;5057357;28;20197;-71
2022/01/18 12:48:21;;;;;;;1.20;1.10;;;16.40;69.50;;;;;;5067703;28;20248;-72
2022/01/18 12:50:51;;;;;;;1.13;1.13;;;16.40;71.30;;;;;;5061225;28;20229;-73
2022/01/18 12:53:21;;;;;;;1.52;1.42;;;16.30;69.90;;;;;;5063244;28;20309;-71
2022/01/18 12:55:54;;;;;;;1.30;1.20;;;16.40;70.60;;;;;;5061649;28;20198;-71
2022/01/18 12:58:23;;;;;;;1.40;1.30;;;16.30;70.20;;;;;;5064820;28;20239;-71
2022/01/18 13:00:52;;;;;;;1.70;1.60;;;16.30;69.30;;;;;;5059974;28;20258;-72
2022/01/18 13:03:22;;;;;;;1.30;1.20;;;16.20;72.60;;;;;;5067603;28;20210;-72
2022/01/18 13:05:51;;;;;;;1.60;1.50;;;16.20;71.20;;;;;;5068539;28;20198;-72
2022/01/18 13:08:20;;;;;;;1.48;1.38;;;16.30;71.40;;;;;;5055711;28;20748;-71
2022/01/18 13:10:50;;;;;;;1.52;1.42;;;16.20;69.80;;;;;;5063642;28;20280;-70
2022/01/18 13:13:19;;;;;;;1.98;1.20;;;15.80;69.90;;;;;;5061302;28;20238;-71
2022/01/18 13:22:58;;;;;;;1.27;1.27;;;15.60;69.60;;;;;;5064278;28;20209;-71
2022/01/18 13:25:09;;;;;;;1.48;1.38;;;15.70;70.00;;;;;;5073216;28;20484;-72
2022/01/18 13:27:41;;;;;;;1.20;1.10;;;15.90;69.50;;;;;;5069649;28;20244;-70
2022/01/18 13:30:17;;;;;;;1.23;1.13;;;16.00;69.30;;;;;;5079830;28;20244;-70
2022/01/18 13:32:46;;;;;;;1.85;1.20;;;16.10;68.90;;;;;;5072742;28;20241;-71
2022/01/18 13:35:14;;;;;;;1.35;1.23;;;16.00;69.10;;;;;;5073990;28;20197;-71
2022/01/18 13:37:41;;;;;;;4.05;1.13;;;15.90;69.20;;;;;;5065923;28;20221;-71
2022/01/18 13:40:14;;;;;;;1.38;1.27;;;15.80;69.60;;;;;;5077336;28;20217;-71
2022/01/18 13:42:44;;;;;;;1.40;1.30;;;15.80;69.10;;;;;;5074012;28;20228;-71
2022/01/18 13:45:16;;;;;;;1.77;1.20;;;15.70;69.60;;;;;;5071319;28;20193;-70
2022/01/18 13:47:46;;;;;;;2.58;1.30;;;15.70;70.00;;;;;;5076469;28;20369;-70
2022/01/18 13:50:43;;;;;;;1.30;1.23;;;15.50;69.70;;;;;;5075474;28;20286;-71
2022/01/18 13:53:13;;;;;;;1.40;1.30;;;15.50;69.40;;;;;;5065852;28;20312;-71
2022/01/18 13:55:51;;;;;;;1.58;1.48;;;15.50;70.10;;;;;;5067887;28;20217;-71
2022/01/18 13:58:25;;;;;;;1.40;1.30;;;15.50;69.80;;;;;;5066632;28;20315;-71
2022/01/18 14:00:52;;;;;;;1.55;1.45;;;15.40;69.50;;;;;;5076416;28;20722;-71
2022/01/18 14:03:30;;;;;;;1.40;1.30;;;15.50;69.40;;;;;;5060973;28;20708;-71
2022/01/18 14:05:57;;;;;;;1.35;1.25;;;15.40;70.00;;;;;;5060519;28;20198;-69